Time;durP1;ratioP1;P1;durP2;ratioP2;P2;SDS_P1;SDS_P2;PMS_P1;PMS_P2;Temp;Humidity;BMP_temperature;BMP_pressure;BME280_temperature;BME280_humidity;BME280_pressure;Samples;Min_cycle;Max_cycle;Signal;HPM_P1;HPM_P2
2023/01/10 00:01:58;;;;;;;14.50;10.10;;;;;;;4.70;81.23;94426.86;106568;1276;22657;-86
2023/01/10 00:04:27;;;;;;;14.20;8.70;;;;;;;4.69;81.49;94418.00;106606;1276;22557;-86
2023/01/10 00:06:56;;;;;;;13.00;7.80;;;;;;;4.70;81.67;94420.23;106608;1276;25463;-86
2023/01/10 00:09:24;;;;;;;16.00;10.10;;;;;;;4.72;81.12;94421.79;106593;1276;24219;-86
2023/01/10 00:14:39;;;;;;;17.10;11.20;;;;;;;4.71;80.95;94425.10;106608;1276;26500;-86
2023/01/10 00:17:07;;;;;;;16.40;10.60;;;;;;;4.68;81.14;94430.90;106592;1276;25448;-86
2023/01/10 00:19:35;;;;;;;14.20;9.50;;;;;;;4.66;81.08;94424.66;106338;1276;24824;-85
2023/01/10 00:22:07;;;;;;;19.10;12.10;;;;;;;4.62;80.96;94423.51;106653;1276;22663;-86
2023/01/10 00:24:35;;;;;;;21.60;11.60;;;;;;;4.60;81.03;94425.27;106619;1276;25406;-86
2023/01/10 00:27:04;;;;;;;13.90;10.00;;;;;;;4.60;81.23;94425.95;106673;1276;22576;-85
2023/01/10 00:29:32;;;;;;;12.00;9.00;;;;;;;4.62;81.56;94426.45;106556;1276;22630;-86
2023/01/10 00:32:01;;;;;;;18.70;11.70;;;;;;;4.64;81.35;94427.66;106626;1276;25307;-86
2023/01/10 00:34:31;;;;;;;14.30;9.30;;;;;;;4.63;80.92;94429.75;106789;1276;22780;-85
2023/01/10 00:36:59;;;;;;;16.80;10.90;;;;;;;4.63;81.22;94427.30;106721;1276;22643;-85
2023/01/10 00:39:28;;;;;;;21.90;13.40;;;;;;;4.62;81.08;94426.80;106597;1276;24275;-85
2023/01/10 00:44:45;;;;;;;12.00;8.70;;;;;;;4.59;80.82;94432.09;106751;1276;22570;-86
2023/01/10 00:47:14;;;;;;;14.20;8.70;;;;;;;4.60;80.81;94428.23;106362;1276;25226;-87
2023/01/10 00:49:42;;;;;;;13.50;8.80;;;;;;;4.58;80.67;94422.69;106609;1276;24372;-86
2023/01/10 00:52:10;;;;;;;14.00;9.90;;;;;;;4.57;80.73;94418.50;106674;1276;22520;-85
2023/01/10 00:54:38;;;;;;;18.20;12.70;;;;;;;4.54;80.57;94417.34;106558;1276;22544;-86
2023/01/10 00:57:06;;;;;;;14.40;9.30;;;;;;;4.47;80.76;94420.39;106550;1274;24273;-86
2023/01/10 00:59:34;;;;;;;16.80;11.10;;;;;;;4.47;80.82;94419.17;106587;1276;24255;-86
2023/01/10 01:02:03;;;;;;;20.10;12.70;;;;;;;4.41;80.76;94409.85;106578;1276;22642;-75
2023/01/10 01:04:33;;;;;;;13.20;10.00;;;;;;;4.35;80.91;94401.77;106587;1276;23885;-86
2023/01/10 01:07:01;;;;;;;14.50;9.40;;;;;;;4.30;81.01;94399.23;106616;1276;22616;-86
2023/01/10 01:09:30;;;;;;;12.20;9.10;;;;;;;4.29;81.19;94396.11;106691;1276;24378;-86
2023/01/10 01:11:58;;;;;;;13.60;9.80;;;;;;;4.30;81.30;94396.08;106538;1276;25465;-85
2023/01/10 01:14:26;;;;;;;12.20;8.80;;;;;;;4.32;81.48;94391.53;106565;1255;25489;-85
2023/01/10 01:16:55;;;;;;;15.50;10.60;;;;;;;4.33;81.17;94383.34;106615;1276;26613;-86
2023/01/10 01:19:23;;;;;;;15.40;10.70;;;;;;;4.35;81.08;94385.05;106586;1276;22554;-85
2023/01/10 01:21:51;;;;;;;16.90;10.10;;;;;;;4.35;81.15;94377.73;106596;1276;22534;-85
2023/01/10 01:24:20;;;;;;;14.90;10.20;;;;;;;4.35;81.28;94375.29;106586;1276;25386;-86
2023/01/10 01:26:48;;;;;;;14.90;9.00;;;;;;;4.35;81.35;94375.13;106626;1276;22542;-86
2023/01/10 01:29:16;;;;;;;18.10;10.60;;;;;;;4.31;81.11;94372.56;106527;1275;22526;-86
2023/01/10 01:31:45;;;;;;;27.60;13.30;;;;;;;4.28;81.19;94371.57;106589;1276;22527;-85
2023/01/10 01:34:14;;;;;;;16.90;9.60;;;;;;;4.26;81.31;94374.02;106593;1276;24275;-86
2023/01/10 01:36:42;;;;;;;12.90;8.90;;;;;;;4.24;81.24;94379.63;106592;1276;22543;-85
2023/01/10 01:39:11;;;;;;;14.70;9.60;;;;;;;4.27;81.15;94384.11;106600;1276;22534;-86
2023/01/10 01:41:59;;;;;;;14.80;9.00;;;;;;;4.28;81.19;94383.75;106607;1276;23904;-86
2023/01/10 01:44:31;;;;;;;14.20;9.00;;;;;;;4.30;80.91;94379.20;106567;1276;24209;-86
2023/01/10 01:46:59;;;;;;;10.30;7.70;;;;;;;4.31;80.57;94380.40;106660;1276;22628;-86
2023/01/10 01:49:29;;;;;;;12.30;9.10;;;;;;;4.31;80.65;94381.62;106652;1276;24267;-86
2023/01/10 01:52:07;;;;;;;14.50;9.30;;;;;;;4.31;80.69;94381.98;106733;1276;22520;-86
2023/01/10 01:54:36;;;;;;;14.90;8.60;;;;;;;4.29;80.64;94378.67;106605;1276;24402;-85
2023/01/10 01:57:12;;;;;;;16.40;10.20;;;;;;;4.32;80.92;94373.60;106569;1276;24270;-85
2023/01/10 01:59:44;;;;;;;15.70;9.80;;;;;;;4.31;80.71;94373.09;106745;1276;22538;-85
2023/01/10 02:02:22;;;;;;;13.50;9.00;;;;;;;4.29;80.52;94375.38;106569;1276;23011;-86
2023/01/10 02:04:52;;;;;;;16.90;9.60;;;;;;;4.27;80.73;94379.23;106627;1276;24254;-86
2023/01/10 02:07:23;;;;;;;14.70;10.00;;;;;;;4.24;80.80;94375.62;106689;1276;24202;-86
2023/01/10 02:10:08;;;;;;;14.10;9.10;;;;;;;4.24;81.06;94374.93;106647;1276;22657;-87
2023/01/10 02:12:38;;;;;;;14.60;9.30;;;;;;;4.20;81.26;94374.63;106646;1276;25371;-85
2023/01/10 02:15:08;;;;;;;14.90;8.90;;;;;;;4.22;81.31;94374.95;106660;1261;22654;-85
2023/01/10 02:17:37;;;;;;;13.30;8.80;;;;;;;4.20;81.06;94375.49;106603;1276;22534;-87
2023/01/10 02:20:10;;;;;;;13.50;9.00;;;;;;;4.21;81.41;94381.77;106656;1276;25409;-86
2023/01/10 02:23:13;;;;;;;19.60;11.80;;;;;;;4.19;81.43;94378.48;106821;1276;23138;-86
2023/01/10 02:25:47;;;;;;;15.70;10.00;;;;;;;4.18;81.36;94376.92;106211;1280;26634;-86
2023/01/10 02:28:46;;;;;;;15.00;9.60;;;;;;;4.21;81.43;94374.10;106538;1276;22827;-86
2023/01/10 02:31:39;;;;;;;15.40;8.90;;;;;;;4.23;81.20;94369.54;106570;1276;22526;-86
2023/01/10 02:34:22;;;;;;;11.70;8.60;;;;;;;4.24;81.39;94365.02;106619;1276;25393;-85
2023/01/10 02:37:13;;;;;;;13.70;9.10;;;;;;;4.20;81.40;94366.10;106600;1276;22533;-86
2023/01/10 02:40:17;;;;;;;17.00;10.20;;;;;;;4.19;81.45;94360.73;106562;1276;22660;-86
2023/01/10 02:43:17;;;;;;;14.90;9.20;;;;;;;4.18;81.75;94360.57;106553;1276;25484;-86
2023/01/10 02:45:52;;;;;;;17.60;11.90;;;;;;;4.13;81.94;94362.36;106743;1276;22682;-86
2023/01/10 02:48:20;;;;;;;15.50;11.00;;;;;;;4.12;82.10;94368.66;106859;1276;22479;-86
2023/01/10 02:51:00;;;;;;;18.40;10.90;;;;;;;4.09;82.24;94370.79;106590;1276;25280;-87
2023/01/10 02:53:36;;;;;;;15.90;11.40;;;;;;;4.07;82.55;94370.98;106584;1276;22648;-87
2023/01/10 02:56:22;;;;;;;16.20;10.50;;;;;;;4.03;82.41;94375.21;106691;1276;23957;-86
2023/01/10 02:58:56;;;;;;;12.50;8.80;;;;;;;4.00;82.45;94376.46;106599;1276;25571;-86
2023/01/10 03:01:36;;;;;;;12.40;9.50;;;;;;;3.97;82.56;94371.30;106617;1276;22581;-79
2023/01/10 03:04:31;;;;;;;15.40;10.20;;;;;;;3.90;82.87;94370.84;106618;1276;25467;-86
2023/01/10 03:07:27;;;;;;;12.50;9.50;;;;;;;3.84;83.26;94373.18;106590;1276;23894;-86
2023/01/10 03:10:06;;;;;;;18.90;11.80;;;;;;;3.78;83.77;94381.95;106640;1261;22885;-86
2023/01/10 03:12:50;;;;;;;17.40;9.80;;;;;;;3.72;84.93;94389.52;106588;1276;22535;-86
2023/01/10 03:15:20;;;;;;;18.60;11.50;;;;;;;3.65;84.99;94390.29;106617;1276;25582;-86
2023/01/10 03:17:53;;;;;;;21.90;13.00;;;;;;;3.65;84.83;94393.77;106656;1276;22612;-85
2023/01/10 03:20:23;;;;;;;21.30;12.70;;;;;;;3.66;84.69;94394.29;106637;1276;24496;-85
2023/01/10 03:22:54;;;;;;;21.40;12.00;;;;;;;3.65;84.90;94398.80;106643;1276;22661;-86
2023/01/10 03:25:31;;;;;;;19.90;11.80;;;;;;;3.65;85.24;94404.72;106538;1276;22611;-88
2023/01/10 03:28:13;;;;;;;16.20;10.00;;;;;;;3.63;85.28;94400.74;106658;1276;24211;-87
2023/01/10 03:31:00;;;;;;;18.20;13.00;;;;;;;3.62;85.08;94407.52;106616;1276;22531;-87
2023/01/10 03:33:31;;;;;;;16.70;10.20;;;;;;;3.66;84.87;94408.52;106697;1276;22521;-86
2023/01/10 03:36:16;;;;;;;24.70;13.60;;;;;;;3.68;84.92;94405.39;106651;1276;22520;-86
2023/01/10 03:38:54;;;;;;;200.10;107.60;;;;;;;3.69;84.83;94407.80;106631;1276;22530;-87
2023/01/10 03:41:29;;;;;;;193.20;123.90;;;;;;;3.66;84.79;94405.40;106635;1276;22751;-86
2023/01/10 03:47:21;;;;;;;31.30;19.80;;;;;;;3.64;84.48;94407.86;106576;1276;22534;-86
2023/01/10 03:49:53;;;;;;;21.20;11.60;;;;;;;3.63;84.59;94415.52;106663;1276;22544;-86
2023/01/10 03:52:24;;;;;;;22.70;19.80;;;;;;;3.62;84.63;94417.80;106665;1261;24585;-86
2023/01/10 03:54:52;;;;;;;16.50;11.00;;;;;;;3.61;84.50;94415.20;106606;1276;25222;-86
2023/01/10 03:57:23;;;;;;;16.10;11.40;;;;;;;3.60;84.62;94419.73;106541;1276;23934;-87
2023/01/10 03:59:55;;;;;;;20.80;13.80;;;;;;;3.61;84.50;94424.08;106697;1276;22541;-87
2023/01/10 04:02:27;;;;;;;12.70;9.20;;;;;;;3.60;84.41;94425.63;106658;1276;23900;-86
2023/01/10 04:04:57;;;;;;;280.30;129.70;;;;;;;3.58;84.30;94430.88;106695;1276;22547;-87
2023/01/10 04:07:26;;;;;;;94.00;47.10;;;;;;;3.59;84.34;94439.91;106535;1276;22566;-87
2023/01/10 04:09:54;;;;;;;24.50;15.30;;;;;;;3.60;84.48;94436.95;106175;1265;622634;-87
2023/01/10 04:12:23;;;;;;;16.10;10.10;;;;;;;3.61;84.37;94440.92;106650;1276;22543;-86
2023/01/10 04:14:51;;;;;;;15.50;9.80;;;;;;;3.58;84.33;94441.84;106600;1262;25412;-88
2023/01/10 04:17:19;;;;;;;18.70;11.50;;;;;;;3.56;84.68;94441.50;106621;1276;25611;-88
2023/01/10 04:19:48;;;;;;;16.70;10.50;;;;;;;3.52;84.83;94446.76;106741;1274;24212;-86
2023/01/10 04:22:16;;;;;;;18.60;12.50;;;;;;;3.52;84.83;94453.20;106794;1276;23894;-87
2023/01/10 04:24:45;;;;;;;22.10;13.30;;;;;;;3.51;85.00;94454.08;106621;1276;24357;-87
2023/01/10 04:27:13;;;;;;;14.00;9.70;;;;;;;3.50;85.09;94450.08;106622;1276;22544;-87
2023/01/10 04:29:42;;;;;;;16.60;11.00;;;;;;;3.49;85.13;94449.58;106654;1276;25577;-87
2023/01/10 04:32:10;;;;;;;23.80;13.90;;;;;;;3.48;85.19;94450.80;106657;1276;23905;-86
2023/01/10 04:34:38;;;;;;;17.10;10.50;;;;;;;3.48;85.06;94454.28;106613;1276;24207;-86
2023/01/10 04:37:06;;;;;;;15.40;10.70;;;;;;;3.48;85.12;94455.66;106612;1276;25380;-87
2023/01/10 04:39:34;;;;;;;13.80;9.40;;;;;;;3.49;85.05;94464.17;106628;1276;23909;-86
2023/01/10 04:42:02;;;;;;;17.80;12.60;;;;;;;3.46;84.96;94459.67;106607;1269;24318;-86
2023/01/10 04:44:30;;;;;;;17.90;11.50;;;;;;;3.46;85.13;94464.55;106538;1276;22577;-87
2023/01/10 04:46:59;;;;;;;20.50;13.00;;;;;;;3.49;85.20;94468.00;106768;1276;22524;-86
2023/01/10 04:49:27;;;;;;;17.80;11.50;;;;;;;3.51;85.13;94465.37;106791;1276;25412;-87
2023/01/10 04:51:55;;;;;;;19.30;13.70;;;;;;;3.50;85.18;94466.08;106610;1274;24073;-86
2023/01/10 04:54:23;;;;;;;17.60;11.60;;;;;;;3.46;85.00;94469.59;106725;1276;22523;-86
2023/01/10 04:56:51;;;;;;;18.20;12.30;;;;;;;3.43;85.11;94482.14;106335;1276;22522;-85
2023/01/10 04:59:19;;;;;;;21.60;13.60;;;;;;;3.39;85.02;94483.90;106678;1276;22533;-86
2023/01/10 05:01:47;;;;;;;19.30;13.20;;;;;;;3.37;85.21;94477.50;106733;1276;22533;-86
2023/01/10 05:04:16;;;;;;;15.00;9.60;;;;;;;3.35;85.23;94471.61;106612;1276;24242;-86
2023/01/10 05:06:45;;;;;;;16.70;11.20;;;;;;;3.33;85.15;94476.50;106580;1276;22523;-85
2023/01/10 05:09:14;;;;;;;14.70;8.90;;;;;;;3.29;85.30;94479.14;106684;1276;25414;-85
2023/01/10 05:11:42;;;;;;;13.50;8.70;;;;;;;3.22;85.07;94481.79;106597;1276;22527;-87
2023/01/10 05:14:10;;;;;;;12.50;9.20;;;;;;;3.18;85.20;94481.66;106590;1276;22516;-82
2023/01/10 05:16:38;;;;;;;14.40;9.30;;;;;;;3.14;85.49;94496.98;106635;1273;25268;-81
2023/01/10 05:19:07;;;;;;;15.90;9.30;;;;;;;3.09;85.86;94505.88;106809;1276;25411;-81
2023/01/10 05:21:35;;;;;;;21.40;11.90;;;;;;;3.03;85.90;94516.17;106623;1276;22716;-82
2023/01/10 05:24:03;;;;;;;14.70;8.80;;;;;;;2.97;85.95;94519.85;106601;1276;25138;-83
2023/01/10 05:26:31;;;;;;;11.50;8.50;;;;;;;2.95;86.06;94515.02;106529;1276;24374;-83
2023/01/10 05:28:59;;;;;;;13.40;8.10;;;;;;;2.94;86.21;94523.35;106609;1276;24316;-84
2023/01/10 05:31:27;;;;;;;12.00;7.80;;;;;;;2.95;86.13;94521.77;106582;1276;22519;-84
2023/01/10 05:33:55;;;;;;;12.80;7.80;;;;;;;2.94;86.10;94520.74;106671;1276;25338;-84
2023/01/10 05:36:23;;;;;;;13.80;8.70;;;;;;;2.94;86.19;94520.92;106673;1276;24869;-84
2023/01/10 05:38:51;;;;;;;13.70;9.50;;;;;;;2.94;86.31;94523.70;106530;1276;25228;-85
2023/01/10 05:41:19;;;;;;;12.70;8.20;;;;;;;2.95;86.28;94523.88;106624;1276;22643;-85
2023/01/10 05:43:48;;;;;;;13.40;8.40;;;;;;;2.91;86.21;94532.23;106650;1276;25375;-85
2023/01/10 05:46:16;;;;;;;11.20;8.00;;;;;;;2.86;86.16;94527.58;106649;1253;22657;-86
2023/01/10 05:48:44;;;;;;;12.10;8.70;;;;;;;2.82;86.43;94528.30;106587;1276;25331;-84
2023/01/10 05:51:13;;;;;;;13.90;9.60;;;;;;;2.78;86.49;94536.13;106695;1276;22618;-84
2023/01/10 05:53:42;;;;;;;12.60;8.10;;;;;;;2.75;86.45;94538.58;106684;1276;22806;-85
2023/01/10 05:56:10;;;;;;;9.60;7.00;;;;;;;2.73;86.44;94539.28;106582;1276;24075;-85
2023/01/10 05:58:38;;;;;;;10.60;7.70;;;;;;;2.69;86.40;94539.65;106749;1276;22524;-85
2023/01/10 06:01:06;;;;;;;11.70;7.10;;;;;;;2.69;86.56;94547.11;106674;1276;24235;-83
2023/01/10 06:03:35;;;;;;;12.30;8.90;;;;;;;2.69;86.90;94550.94;106581;1276;24232;-73
2023/01/10 06:06:03;;;;;;;12.20;8.90;;;;;;;2.69;87.59;94557.02;106587;1276;25222;-71
2023/01/10 06:08:31;;;;;;;28.30;17.00;;;;;;;2.67;87.15;94555.45;106498;1276;25269;-70
2023/01/10 06:10:59;;;;;;;26.50;16.30;;;;;;;2.65;87.01;94556.00;106687;1276;22535;-74
2023/01/10 06:13:28;;;;;;;45.50;25.60;;;;;;;2.64;87.88;94562.43;106762;1276;24206;-71
2023/01/10 06:15:56;;;;;;;44.60;24.70;;;;;;;2.64;87.72;94571.45;106719;1276;25489;-71
2023/01/10 06:18:24;;;;;;;23.30;14.40;;;;;;;2.67;87.75;94578.04;106799;1276;25282;-71
2023/01/10 06:20:53;;;;;;;12.00;8.30;;;;;;;2.72;87.58;94571.59;106657;1276;24213;-72
2023/01/10 06:23:21;;;;;;;12.10;8.10;;;;;;;2.77;87.67;94561.84;106770;1276;24392;-75
2023/01/10 06:25:49;;;;;;;11.00;7.10;;;;;;;2.80;87.58;94562.52;106833;1276;25315;-70
2023/01/10 06:28:17;;;;;;;12.50;8.20;;;;;;;2.81;87.53;94561.99;106909;1276;25329;-70
2023/01/10 06:30:45;;;;;;;12.40;8.90;;;;;;;2.82;87.43;94567.70;106890;1276;22521;-70
2023/01/10 06:33:13;;;;;;;11.00;8.20;;;;;;;2.85;87.60;94567.53;106861;1276;22517;-74
2023/01/10 06:35:42;;;;;;;11.30;8.60;;;;;;;2.88;87.65;94571.49;106687;1276;25617;-76
2023/01/10 06:38:10;;;;;;;10.50;7.40;;;;;;;2.92;87.78;94577.38;106522;1276;24265;-72
2023/01/10 06:40:39;;;;;;;11.80;7.90;;;;;;;2.95;87.60;94587.45;106650;1276;22663;-71
2023/01/10 06:43:07;;;;;;;16.10;11.40;;;;;;;2.98;87.58;94589.34;106658;1276;22533;-75
2023/01/10 06:45:35;;;;;;;67.30;36.80;;;;;;;2.99;87.71;94596.63;106796;1276;22619;-72
2023/01/10 06:48:04;;;;;;;36.60;19.10;;;;;;;3.02;87.62;94598.00;106765;1276;23933;-71
2023/01/10 06:50:32;;;;;;;25.80;14.50;;;;;;;3.08;87.73;94596.23;106624;1276;25325;-72
2023/01/10 06:53:02;;;;;;;21.60;12.30;;;;;;;3.11;87.46;94590.30;106561;1276;22594;-70
2023/01/10 06:55:31;;;;;;;29.20;17.80;;;;;;;3.13;87.53;94597.77;106620;1275;22539;-80
2023/01/10 06:58:03;;;;;;;29.70;17.10;;;;;;;3.11;88.18;94610.46;106791;1276;22530;-75
2023/01/10 07:00:32;;;;;;;18.00;12.00;;;;;;;3.10;87.83;94612.20;106704;1276;22643;-75
2023/01/10 07:03:01;;;;;;;16.40;9.60;;;;;;;3.12;87.84;94613.41;106697;1276;24190;-81
2023/01/10 07:05:29;;;;;;;27.30;17.80;;;;;;;3.15;87.78;94606.44;106673;1276;25279;-71
2023/01/10 07:08:00;;;;;;;44.70;29.00;;;;;;;3.17;87.78;94599.64;106839;1276;22683;-73
2023/01/10 07:10:28;;;;;;;41.10;23.80;;;;;;;3.22;87.93;94596.31;106881;1276;22672;-74
2023/01/10 07:12:57;;;;;;;22.80;14.70;;;;;;;3.26;87.79;94598.73;106653;1276;25222;-71
2023/01/10 07:15:27;;;;;;;16.00;12.60;;;;;;;3.31;87.64;94606.00;106732;1276;22546;-69
2023/01/10 07:17:57;;;;;;;21.50;13.90;;;;;;;3.32;87.61;94606.17;106741;1276;22557;-69
2023/01/10 07:20:26;;;;;;;32.10;20.30;;;;;;;3.35;87.56;94607.35;106973;1275;22662;-72
2023/01/10 07:22:56;;;;;;;50.90;25.80;;;;;;;3.38;87.66;94596.55;106868;1275;24353;-74
2023/01/10 07:25:26;;;;;;;74.50;31.10;;;;;;;3.44;87.63;94593.90;106709;1275;24238;-67
2023/01/10 07:27:54;;;;;;;107.90;45.60;;;;;;;3.49;87.51;94594.73;106727;1275;25315;-72
2023/01/10 07:30:23;;;;;;;57.40;29.70;;;;;;;3.52;87.28;94590.02;106675;1275;22533;-71
2023/01/10 07:32:54;;;;;;;38.90;22.50;;;;;;;3.57;87.28;94582.86;106809;1275;24298;-70
2023/01/10 07:35:23;;;;;;;27.20;16.50;;;;;;;3.64;87.26;94583.50;106738;1275;25274;-70
2023/01/10 07:37:51;;;;;;;26.10;18.40;;;;;;;3.69;86.76;94590.94;106660;1275;25281;-71
2023/01/10 07:40:20;;;;;;;17.90;13.50;;;;;;;3.69;85.95;94603.80;106622;1275;25294;-72
2023/01/10 07:42:48;;;;;;;16.50;11.90;;;;;;;3.65;85.72;94621.40;106713;1275;25334;-73
2023/01/10 07:45:17;;;;;;;15.50;11.10;;;;;;;3.67;85.90;94621.73;107092;1275;22523;-73
2023/01/10 07:47:46;;;;;;;17.00;12.50;;;;;;;3.68;85.85;94619.29;106920;1256;24536;-71
2023/01/10 07:50:14;;;;;;;16.50;12.20;;;;;;;3.68;85.73;94617.55;106785;1275;24195;-72
2023/01/10 07:52:44;;;;;;;26.50;14.60;;;;;;;3.73;85.99;94619.59;107012;1275;22521;-74
2023/01/10 07:55:13;;;;;;;39.00;19.60;;;;;;;3.75;85.76;94618.71;106720;1275;24242;-75
2023/01/10 07:57:41;;;;;;;31.50;17.30;;;;;;;3.76;85.63;94613.14;106771;1275;22655;-74
2023/01/10 08:00:10;;;;;;;24.80;14.50;;;;;;;3.78;85.44;94608.27;106773;1275;25404;-70
2023/01/10 08:02:38;;;;;;;67.90;34.00;;;;;;;3.82;85.83;94592.73;106748;1275;22518;-70
2023/01/10 08:05:07;;;;;;;42.50;24.90;;;;;;;3.89;86.05;94586.93;106824;1274;22523;-73
2023/01/10 08:07:35;;;;;;;27.80;17.10;;;;;;;3.96;85.93;94586.35;106686;1276;25940;-75
2023/01/10 08:10:05;;;;;;;32.50;19.80;;;;;;;4.00;85.99;94589.62;106743;1276;22638;-76
2023/01/10 08:12:33;;;;;;;65.90;43.40;;;;;;;4.04;85.84;94592.54;106666;1276;25358;-70
2023/01/10 08:15:01;;;;;;;21.80;15.20;;;;;;;4.06;85.72;94603.83;106605;1276;25452;-73
2023/01/10 08:17:33;;;;;;;36.90;23.30;;;;;;;4.05;85.54;94631.16;106489;1274;25228;-79
2023/01/10 08:20:01;;;;;;;40.90;21.00;;;;;;;4.03;85.62;94648.93;106678;1276;22571;-75
2023/01/10 08:22:30;;;;;;;51.70;31.20;;;;;;;4.02;85.51;94657.81;106681;1255;24481;-75
2023/01/10 08:24:58;;;;;;;35.10;21.20;;;;;;;4.00;85.66;94670.01;106742;1276;25308;-76
2023/01/10 08:27:26;;;;;;;23.90;13.60;;;;;;;3.98;85.76;94679.95;106513;1276;22624;-76
2023/01/10 08:29:54;;;;;;;14.40;10.10;;;;;;;3.97;85.93;94686.73;106354;1276;22530;-74
2023/01/10 08:32:22;;;;;;;14.50;10.60;;;;;;;3.97;85.82;94692.13;106756;1276;26591;-79
2023/01/10 08:34:50;;;;;;;16.80;11.30;;;;;;;3.99;85.89;94701.70;106399;1276;24489;-72
2023/01/10 08:37:18;;;;;;;20.70;12.40;;;;;;;4.01;85.82;94714.38;106869;1276;22631;-77
2023/01/10 08:39:46;;;;;;;16.70;11.00;;;;;;;4.02;85.88;94720.44;106795;1276;25162;-70
2023/01/10 08:42:18;;;;;;;17.90;11.60;;;;;;;4.06;86.00;94723.39;106460;1276;24341;-76
2023/01/10 08:44:47;;;;;;;16.50;11.30;;;;;;;4.07;85.88;94724.41;106468;1276;25292;-71
2023/01/10 08:47:15;;;;;;;15.30;10.90;;;;;;;4.11;85.94;94725.61;106543;1276;24233;-71
2023/01/10 08:49:45;;;;;;;15.00;10.40;;;;;;;4.12;85.77;94727.16;106575;1276;22537;-74
2023/01/10 08:52:14;;;;;;;15.00;10.40;;;;;;;4.11;85.56;94731.54;106734;1276;24271;-73
2023/01/10 08:54:42;;;;;;;18.00;11.30;;;;;;;4.11;85.60;94728.21;106651;1276;25235;-74
2023/01/10 08:57:10;;;;;;;18.60;12.70;;;;;;;4.17;85.92;94734.42;106457;1276;22551;-75
2023/01/10 08:59:39;;;;;;;16.30;11.80;;;;;;;4.22;85.79;94728.13;106565;1276;22523;-75
2023/01/10 09:02:12;;;;;;;18.70;11.70;;;;;;;4.22;85.47;94724.83;106676;1276;22523;-71
2023/01/10 09:04:40;;;;;;;16.70;11.40;;;;;;;4.23;85.68;94727.08;106772;1274;22608;-73
2023/01/10 09:07:08;;;;;;;15.00;10.00;;;;;;;4.26;85.81;94722.89;106892;1276;25441;-76
2023/01/10 09:09:36;;;;;;;17.90;10.70;;;;;;;4.26;85.60;94725.14;106828;1276;25936;-77
2023/01/10 09:12:53;;;;;;;16.80;12.10;;;;;;;4.28;85.89;94728.25;106758;1276;24462;-78
2023/01/10 09:14:52;;;;;;;15.70;11.30;;;;;;;4.30;85.76;94733.12;106833;1259;25571;-74
2023/01/10 09:17:20;;;;;;;15.70;12.20;;;;;;;4.31;85.68;94730.67;106918;1276;22984;-66
2023/01/10 09:19:48;;;;;;;16.10;10.90;;;;;;;4.36;85.87;94738.46;106745;1276;22639;-76
2023/01/10 09:22:16;;;;;;;14.30;10.30;;;;;;;4.38;85.70;94749.06;106780;1273;22580;-71
2023/01/10 09:24:45;;;;;;;13.30;9.60;;;;;;;4.42;85.82;94760.17;106740;1276;25207;-69
2023/01/10 09:27:13;;;;;;;13.60;10.10;;;;;;;4.45;85.81;94768.15;106532;1267;22598;-70
2023/01/10 09:29:41;;;;;;;14.40;10.30;;;;;;;4.47;85.74;94776.50;106548;1276;24198;-71
2023/01/10 09:32:09;;;;;;;17.00;10.70;;;;;;;4.47;85.43;94781.73;106623;1276;25348;-70
2023/01/10 09:34:37;;;;;;;17.20;10.70;;;;;;;4.47;85.47;94785.55;106623;1276;24261;-71
2023/01/10 09:37:05;;;;;;;14.10;10.90;;;;;;;4.44;85.74;94783.67;106855;1276;24346;-70
2023/01/10 09:39:34;;;;;;;18.00;12.20;;;;;;;4.42;86.05;94785.77;106635;1276;24355;-68
2023/01/10 09:42:10;;;;;;;16.00;11.00;;;;;;;4.44;86.31;94779.32;106747;1276;23011;-70
2023/01/10 09:44:47;;;;;;;20.20;13.50;;;;;;;4.50;86.53;94771.08;106881;1276;24244;-70
2023/01/10 09:47:57;;;;;;;19.90;13.00;;;;;;;4.53;86.24;94770.87;106934;1276;25354;-69
2023/01/10 09:51:07;;;;;;;27.60;18.10;;;;;;;4.55;86.33;94773.65;106391;1282;22863;-71
2023/01/10 09:53:41;;;;;;;53.40;26.90;;;;;;;4.58;86.14;94770.48;106247;1282;25342;-74
2023/01/10 09:56:12;;;;;;;;;;;;;;;4.61;86.13;94760.02;106428;1276;22522;-72
2023/01/10 09:58:43;;;;;;;44.90;24.80;;;;;;;4.65;86.18;94759.29;106592;1265;25543;-73
2023/01/10 10:01:20;;;;;;;47.50;26.80;;;;;;;4.71;86.21;94759.92;106658;1276;22633;-74
2023/01/10 10:04:06;;;;;;;35.80;17.90;;;;;;;4.78;86.64;94763.85;106665;1276;22518;-69
2023/01/10 10:06:35;;;;;;;38.20;20.90;;;;;;;4.79;86.30;94760.72;106906;1276;22532;-74
2023/01/10 10:09:03;;;;;;;36.10;18.80;;;;;;;4.77;86.21;94762.13;106631;1276;24393;-74
2023/01/10 10:11:49;;;;;;;18.50;12.50;;;;;;;4.79;86.20;94770.30;106577;1276;22637;-71
2023/01/10 10:14:17;;;;;;;26.20;15.00;;;;;;;4.79;85.80;94772.39;106630;1276;22531;-70
2023/01/10 10:17:22;;;;;;;24.30;15.50;;;;;;;4.74;85.23;94773.66;106678;1276;25584;-69
2023/01/10 10:19:56;;;;;;;32.10;18.90;;;;;;;4.68;85.19;94783.46;106754;1276;25322;-68
2023/01/10 10:22:52;;;;;;;25.50;16.90;;;;;;;4.68;85.63;94782.26;106880;1276;22528;-71
2023/01/10 10:25:42;;;;;;;16.90;11.70;;;;;;;4.69;85.96;94782.41;106911;1265;22545;-74
2023/01/10 10:28:48;;;;;;;18.70;11.50;;;;;;;4.73;86.30;94781.33;106431;1275;25268;-74
2023/01/10 10:31:35;;;;;;;18.40;11.80;;;;;;;4.77;86.52;94778.52;106853;1275;22598;-75
2023/01/10 10:34:18;;;;;;;17.50;12.10;;;;;;;4.80;86.32;94779.00;106769;1275;22541;-75
2023/01/10 10:36:52;;;;;;;21.70;13.80;;;;;;;4.84;86.36;94772.52;106937;1275;22661;-74
2023/01/10 10:39:43;;;;;;;16.50;11.30;;;;;;;4.88;86.32;94773.85;107089;1275;22788;-72
2023/01/10 10:42:15;;;;;;;16.80;11.20;;;;;;;4.92;86.24;94774.34;106899;1275;22580;-83
2023/01/10 10:45:05;;;;;;;15.00;10.80;;;;;;;4.94;86.26;94767.19;106609;1275;25507;-76
2023/01/10 10:47:35;;;;;;;20.10;13.10;;;;;;;4.93;85.81;94767.02;107065;1275;22542;-77
2023/01/10 10:50:19;;;;;;;19.10;12.70;;;;;;;4.90;85.88;94779.42;107031;1275;22557;-75
2023/01/10 10:52:47;;;;;;;19.00;12.30;;;;;;;4.91;86.24;94777.85;106975;1275;24929;-73
2023/01/10 10:55:18;;;;;;;18.00;12.30;;;;;;;4.91;86.31;94771.04;106710;1275;25255;-69
2023/01/10 10:57:46;;;;;;;18.70;12.50;;;;;;;4.93;86.42;94772.94;106587;1275;22737;-67
2023/01/10 11:00:28;;;;;;;20.60;13.70;;;;;;;4.97;86.57;94773.08;106722;1265;22777;-79
2023/01/10 11:03:11;;;;;;;17.80;13.10;;;;;;;4.97;86.37;94776.92;106713;1276;23916;-76
2023/01/10 11:05:44;;;;;;;19.00;12.50;;;;;;;4.96;86.20;94778.49;106662;1276;22552;-73
2023/01/10 11:08:16;;;;;;;20.30;13.50;;;;;;;4.92;86.17;94780.46;106394;1276;22853;-73
2023/01/10 11:10:52;;;;;;;21.20;12.60;;;;;;;4.92;86.31;94783.23;106905;1276;22531;-73
2023/01/10 11:13:26;;;;;;;18.10;12.60;;;;;;;4.92;86.26;94784.45;106602;1276;22527;-73
2023/01/10 11:15:54;;;;;;;22.40;13.40;;;;;;;4.92;86.40;94781.85;106712;1275;24260;-73
2023/01/10 11:18:26;;;;;;;19.70;13.60;;;;;;;4.91;86.47;94783.77;106852;1276;23150;-73
2023/01/10 11:21:19;;;;;;;18.30;12.90;;;;;;;4.92;86.61;94787.24;106589;1276;25272;-73
2023/01/10 11:23:53;;;;;;;21.40;13.90;;;;;;;4.95;86.92;94791.93;106754;1276;22522;-72
2023/01/10 11:26:29;;;;;;;20.60;14.60;;;;;;;4.94;86.76;94790.37;106751;1276;24330;-72
2023/01/10 11:29:23;;;;;;;21.90;15.60;;;;;;;4.93;86.72;94795.78;106600;1276;24260;-72
2023/01/10 11:31:54;;;;;;;19.70;13.80;;;;;;;4.92;86.75;94794.58;106659;1276;25265;-72
2023/01/10 11:34:31;;;;;;;19.40;12.40;;;;;;;4.92;86.88;94789.16;106512;1276;25259;-73
2023/01/10 11:37:03;;;;;;;20.00;12.50;;;;;;;4.92;86.89;94789.17;106626;1270;24253;-73
2023/01/10 11:39:32;;;;;;;18.10;12.70;;;;;;;4.92;86.98;94789.67;106542;1276;25224;-73
2023/01/10 11:42:29;;;;;;;20.80;14.40;;;;;;;4.94;86.99;94785.84;106510;1276;22649;-73
2023/01/10 11:45:16;;;;;;;18.80;13.70;;;;;;;4.96;87.07;94782.50;106746;1276;22973;-73
2023/01/10 11:47:47;;;;;;;20.00;14.40;;;;;;;4.99;86.97;94782.47;106629;1276;22543;-74
2023/01/10 11:50:24;;;;;;;20.70;13.00;;;;;;;4.96;86.71;94785.30;106591;1263;24255;-72
2023/01/10 11:52:54;;;;;;;19.50;13.40;;;;;;;4.90;86.40;94791.44;106579;1276;22530;-73